Time;durP1;ratioP1;P1;durP2;ratioP2;P2;SDS_P1;SDS_P2;PMS_P1;PMS_P2;Temp;Humidity;BMP_temperature;BMP_pressure;BME280_temperature;BME280_humidity;BME280_pressure;Samples;Min_cycle;Max_cycle;Signal;HPM_P1;HPM_P2
2022/11/09 00:01:42;;;;;;;3.35;0.50;;;20.70;57.90;;;;;;5008672;28;20042;-46
2022/11/09 00:04:11;;;;;;;3.03;0.80;;;20.80;58.00;;;;;;5085876;28;20052;-48
2022/11/09 00:06:39;;;;;;;1.30;0.10;;;20.70;58.10;;;;;;5101100;28;20039;-46
2022/11/09 00:09:08;;;;;;;0.88;0.17;;;20.80;58.20;;;;;;5096053;28;20040;-47
2022/11/09 00:11:36;;;;;;;8.55;0.30;;;20.80;58.10;;;;;;5111680;28;20040;-47
2022/11/09 00:14:03;;;;;;;3.30;0.93;;;20.80;58.10;;;;;;5092607;28;20950;-48
2022/11/09 00:16:30;;;;;;;0.82;0.10;;;20.80;58.00;;;;;;5091282;28;20044;-45
2022/11/09 00:18:59;;;;;;;2.08;0.30;;;20.80;58.00;;;;;;5090801;28;20089;-46
2022/11/09 00:21:27;;;;;;;1.77;0.10;;;20.80;57.90;;;;;;5090840;28;20032;-45
2022/11/09 00:23:54;;;;;;;2.25;0.30;;;20.80;57.90;;;;;;5090880;28;20047;-47
2022/11/09 00:26:21;;;;;;;4.68;0.50;;;20.80;57.90;;;;;;5090982;28;20040;-49
2022/11/09 00:28:49;;;;;;;0.93;0.10;;;20.80;57.90;;;;;;5072158;28;20147;-47
2022/11/09 00:31:18;;;;;;;2.25;0.30;;;20.70;57.90;;;;;;5090929;28;20044;-47
2022/11/09 00:33:48;;;;;;;0.73;0.30;;;20.70;57.90;;;;;;5090488;28;20131;-47
2022/11/09 00:36:15;;;;;;;1.80;0.10;;;20.70;57.90;;;;;;5072134;28;20047;-49
2022/11/09 00:38:48;;;;;;;4.18;0.15;;;20.70;57.90;;;;;;5090604;28;20084;-45
2022/11/09 00:41:15;;;;;;;3.50;0.80;;;20.70;58.00;;;;;;5090019;28;20105;-46
2022/11/09 00:43:42;;;;;;;3.20;0.40;;;20.70;58.10;;;;;;5108865;27;20687;-48
2022/11/09 00:46:09;;;;;;;1.02;0.10;;;20.70;58.20;;;;;;5113210;27;20051;-48
2022/11/09 00:48:37;;;;;;;0.47;0.10;;;20.70;58.30;;;;;;5112759;27;20046;-48
2022/11/09 00:51:05;;;;;;;2.97;0.10;;;20.60;58.30;;;;;;5109696;27;20046;-46
2022/11/09 00:53:32;;;;;;;0.50;0.10;;;20.70;58.30;;;;;;5110777;28;20470;-48
2022/11/09 00:56:02;;;;;;;1.60;0.10;;;20.60;58.30;;;;;;5110698;28;20039;-45
2022/11/09 00:58:32;;;;;;;4.65;0.35;;;20.60;58.40;;;;;;5091975;28;20508;-45
2022/11/09 01:01:05;;;;;;;1.27;0.17;;;20.60;58.40;;;;;;5092063;28;20039;-47
2022/11/09 01:03:32;;;;;;;1.27;0.10;;;20.60;58.50;;;;;;5086888;28;20115;-48
2022/11/09 01:06:01;;;;;;;3.67;0.10;;;20.60;59.10;;;;;;5090117;28;20105;-49
2022/11/09 01:08:28;;;;;;;0.10;0.10;;;20.60;58.60;;;;;;5089981;28;20056;-45
2022/11/09 01:10:55;;;;;;;1.45;0.15;;;20.60;58.60;;;;;;5107557;28;20042;-47
2022/11/09 01:13:24;;;;;;;2.25;0.20;;;20.60;58.70;;;;;;5110193;28;20492;-47
2022/11/09 01:15:53;;;;;;;1.77;0.13;;;20.60;58.60;;;;;;5091976;28;20142;-45
2022/11/09 01:18:21;;;;;;;0.20;0.10;;;20.60;58.70;;;;;;5110115;28;20508;-46
2022/11/09 01:20:50;;;;;;;1.90;0.47;;;20.60;58.70;;;;;;5110242;28;20031;-45
2022/11/09 01:23:19;;;;;;;0.98;0.10;;;20.60;59.30;;;;;;5091968;28;20072;-45
2022/11/09 01:25:46;;;;;;;1.02;0.00;;;20.60;58.70;;;;;;5110070;28;20581;-45
2022/11/09 01:28:13;;;;;;;0.88;0.10;;;20.60;58.70;;;;;;5109598;28;20100;-48
2022/11/09 01:30:43;;;;;;;0.77;0.10;;;20.50;58.70;;;;;;5109889;28;20066;-46
2022/11/09 01:33:12;;;;;;;0.65;0.10;;;20.50;58.70;;;;;;5110239;28;20047;-47
2022/11/09 01:35:40;;;;;;;2.90;0.10;;;20.50;58.80;;;;;;5109747;28;20048;-46
2022/11/09 01:38:08;;;;;;;3.20;0.13;;;20.50;58.80;;;;;;5109899;28;20123;-46
2022/11/09 01:40:38;;;;;;;2.28;0.65;;;20.50;59.40;;;;;;5091086;28;20047;-48
2022/11/09 01:43:13;;;;;;;1.25;0.13;;;20.50;58.90;;;;;;5091388;28;20051;-46
2022/11/09 01:45:43;;;;;;;3.67;0.20;;;20.50;59.00;;;;;;5091551;28;20074;-45
2022/11/09 01:48:15;;;;;;;1.65;0.95;;;20.50;58.90;;;;;;5109539;28;20043;-45
2022/11/09 01:50:46;;;;;;;1.05;0.15;;;20.50;58.90;;;;;;5090862;28;20118;-45
2022/11/09 01:53:19;;;;;;;1.40;0.10;;;20.50;58.90;;;;;;5088884;28;20052;-49
2022/11/09 01:55:51;;;;;;;0.68;0.20;;;20.50;58.90;;;;;;5075755;28;20067;-46
2022/11/09 01:58:21;;;;;;;5.10;0.38;;;20.50;59.00;;;;;;5079048;28;20389;-46
2022/11/09 02:00:51;;;;;;;2.33;0.10;;;20.40;59.00;;;;;;5109370;28;20047;-45
2022/11/09 02:03:24;;;;;;;0.43;0.20;;;20.40;59.10;;;;;;5091074;28;20041;-46
2022/11/09 02:05:52;;;;;;;3.25;0.10;;;20.40;59.10;;;;;;5091074;28;20047;-44
2022/11/09 02:08:22;;;;;;;3.33;0.10;;;20.40;59.10;;;;;;5090977;28;20115;-45
2022/11/09 02:10:57;;;;;;;1.25;0.20;;;20.40;59.10;;;;;;5090280;28;20125;-45
2022/11/09 02:13:27;;;;;;;2.10;0.77;;;20.40;59.20;;;;;;5090945;28;20043;-46
2022/11/09 02:15:55;;;;;;;0.95;0.10;;;20.40;59.20;;;;;;5109219;28;20119;-45
2022/11/09 02:18:23;;;;;;;1.88;0.20;;;20.40;59.20;;;;;;5090618;28;20088;-44
2022/11/09 02:20:56;;;;;;;0.20;0.15;;;20.40;59.20;;;;;;5090836;28;20085;-45
2022/11/09 02:23:25;;;;;;;1.73;0.15;;;20.40;59.20;;;;;;5109104;28;20043;-45
2022/11/09 02:25:56;;;;;;;2.05;0.10;;;20.30;59.10;;;;;;5083319;28;20040;-49
2022/11/09 02:28:25;;;;;;;0.93;0.10;;;20.30;59.10;;;;;;5098243;28;20047;-45
2022/11/09 02:30:55;;;;;;;2.25;0.47;;;20.30;59.20;;;;;;5070274;28;20036;-47
2022/11/09 02:33:22;;;;;;;2.72;0.25;;;20.30;59.10;;;;;;5088484;28;20393;-46
2022/11/09 02:35:49;;;;;;;1.83;0.10;;;20.30;59.20;;;;;;5105237;27;20047;-47
2022/11/09 02:38:18;;;;;;;0.55;0.10;;;20.30;59.20;;;;;;5129183;27;20165;-48
2022/11/09 02:40:49;;;;;;;1.55;0.52;;;20.30;59.20;;;;;;5125676;27;20052;-45
2022/11/09 02:43:17;;;;;;;2.92;0.10;;;20.30;59.20;;;;;;5108533;28;20153;-45
2022/11/09 02:45:45;;;;;;;2.05;0.10;;;20.30;59.30;;;;;;5084034;28;20051;-48
2022/11/09 02:48:12;;;;;;;0.47;0.20;;;20.20;59.20;;;;;;5079899;28;20039;-46
2022/11/09 02:50:39;;;;;;;0.90;0.10;;;20.20;59.30;;;;;;5113261;27;20031;-46
2022/11/09 02:53:06;;;;;;;3.05;0.10;;;20.20;59.30;;;;;;5089796;28;20431;-45
2022/11/09 02:55:38;;;;;;;1.65;1.08;;;20.20;59.20;;;;;;5090104;28;20451;-45
2022/11/09 02:58:07;;;;;;;1.15;0.10;;;20.20;59.30;;;;;;5090494;28;20583;-46
2022/11/09 03:00:35;;;;;;;0.63;0.10;;;20.20;59.40;;;;;;5090143;28;20047;-48
2022/11/09 03:03:03;;;;;;;0.95;0.10;;;20.20;59.40;;;;;;5089608;28;20122;-47
2022/11/09 03:05:30;;;;;;;2.42;0.17;;;20.20;59.40;;;;;;5090404;28;20112;-51
2022/11/09 03:08:01;;;;;;;3.60;0.10;;;20.20;59.40;;;;;;5089990;28;20039;-52
2022/11/09 03:10:29;;;;;;;0.40;0.10;;;20.20;59.40;;;;;;5089953;28;20039;-49
2022/11/09 03:12:58;;;;;;;1.85;0.32;;;20.20;59.40;;;;;;5090182;28;20044;-46
2022/11/09 03:15:25;;;;;;;2.92;0.65;;;20.10;59.40;;;;;;5088907;28;20052;-48
2022/11/09 03:17:52;;;;;;;5.38;0.75;;;20.10;59.40;;;;;;5081682;28;20047;-46
2022/11/09 03:20:20;;;;;;;0.32;0.10;;;20.10;59.40;;;;;;5106859;28;20047;-47
2022/11/09 03:22:48;;;;;;;1.55;0.20;;;20.10;59.40;;;;;;5108247;28;20408;-45
2022/11/09 03:25:16;;;;;;;3.40;0.10;;;20.10;59.40;;;;;;5089697;28;20047;-45
2022/11/09 03:27:43;;;;;;;0.75;0.10;;;20.10;59.40;;;;;;5090040;28;20139;-44
2022/11/09 03:30:13;;;;;;;0.50;0.00;;;20.10;59.50;;;;;;5091103;28;20113;-50
2022/11/09 03:32:41;;;;;;;2.22;0.10;;;20.10;59.50;;;;;;5110210;28;20062;-49
2022/11/09 03:35:09;;;;;;;3.00;0.73;;;20.10;59.50;;;;;;5091813;28;20066;-44
2022/11/09 03:37:36;;;;;;;1.75;0.00;;;20.10;59.50;;;;;;5089580;28;20116;-45
2022/11/09 03:40:04;;;;;;;0.20;0.05;;;20.10;59.50;;;;;;5106632;28;20134;-46
2022/11/09 03:42:31;;;;;;;0.50;0.00;;;20.10;59.50;;;;;;5115309;28;20144;-45
2022/11/09 03:44:58;;;;;;;0.57;0.00;;;20.10;59.50;;;;;;5106164;28;20515;-48
2022/11/09 03:47:27;;;;;;;0.28;0.00;;;20.10;59.50;;;;;;5108315;28;20151;-46
2022/11/09 03:49:54;;;;;;;0.82;0.20;;;20.10;59.50;;;;;;5107899;28;20465;-46
2022/11/09 03:52:21;;;;;;;0.57;0.00;;;20.00;59.40;;;;;;5107306;28;20078;-48
2022/11/09 03:54:48;;;;;;;2.15;0.10;;;20.00;59.40;;;;;;5107756;28;20043;-48
2022/11/09 03:57:15;;;;;;;0.52;0.00;;;20.00;59.40;;;;;;5107782;28;20047;-48
2022/11/09 03:59:42;;;;;;;4.03;0.10;;;20.10;59.50;;;;;;5107816;28;20043;-45
2022/11/09 04:02:09;;;;;;;1.48;0.22;;;20.00;59.40;;;;;;5089495;28;20492;-45
2022/11/09 04:04:37;;;;;;;0.30;0.00;;;20.00;59.40;;;;;;5104317;28;20089;-47
2022/11/09 04:07:04;;;;;;;0.75;0.00;;;20.00;59.40;;;;;;5097446;28;20043;-48
2022/11/09 04:09:31;;;;;;;0.75;0.00;;;20.00;59.40;;;;;;5107794;28;20374;-46
2022/11/09 04:11:58;;;;;;;0.10;0.00;;;20.00;59.30;;;;;;5107403;28;20070;-45
2022/11/09 04:14:25;;;;;;;0.03;0.00;;;20.00;59.30;;;;;;5109574;28;20054;-47
2022/11/09 04:16:52;;;;;;;0.32;0.00;;;20.00;59.30;;;;;;5111485;28;20046;-45
2022/11/09 04:19:19;;;;;;;0.75;0.75;;;20.00;59.30;;;;;;5111733;28;20046;-46
2022/11/09 04:21:48;;;;;;;0.70;0.00;;;20.00;59.30;;;;;;5092643;28;20134;-45
2022/11/09 04:24:15;;;;;;;0.25;0.08;;;20.00;59.20;;;;;;5111480;28;20071;-46
2022/11/09 04:26:42;;;;;;;0.50;0.10;;;20.00;59.20;;;;;;5111099;28;20053;-47
2022/11/09 04:29:10;;;;;;;2.08;0.70;;;20.00;59.20;;;;;;5111347;28;20066;-55
2022/11/09 04:31:37;;;;;;;0.13;0.00;;;19.90;59.20;;;;;;5111033;28;20617;-45
2022/11/09 04:34:04;;;;;;;0.20;0.00;;;19.90;59.10;;;;;;5115059;27;20114;-45
2022/11/09 04:36:31;;;;;;;0.80;0.00;;;20.00;59.20;;;;;;5131541;27;20127;-48
2022/11/09 04:39:00;;;;;;;0.98;0.43;;;20.00;59.20;;;;;;5132025;27;20087;-47
2022/11/09 04:41:27;;;;;;;0.40;0.00;;;19.90;59.20;;;;;;5101812;28;20070;-46
2022/11/09 04:43:54;;;;;;;0.45;0.05;;;20.00;59.20;;;;;;5089442;28;20044;-46
2022/11/09 04:46:21;;;;;;;0.50;0.10;;;19.90;59.30;;;;;;5101359;28;20694;-46
2022/11/09 04:48:48;;;;;;;0.13;0.00;;;19.90;59.10;;;;;;5110898;28;20061;-48
2022/11/09 04:51:15;;;;;;;1.88;0.00;;;19.90;59.10;;;;;;5110504;28;20056;-47
2022/11/09 04:53:43;;;;;;;0.88;0.00;;;19.90;59.70;;;;;;5110924;28;20553;-48
2022/11/09 04:56:11;;;;;;;0.40;0.00;;;19.90;59.10;;;;;;5110389;28;20118;-49
2022/11/09 04:58:39;;;;;;;0.10;0.00;;;19.90;59.10;;;;;;5110941;28;20396;-46
2022/11/09 05:01:11;;;;;;;1.67;0.00;;;19.90;59.20;;;;;;5110807;28;20040;-47
2022/11/09 05:03:38;;;;;;;1.95;0.08;;;19.90;59.20;;;;;;5110377;28;20126;-47
2022/11/09 05:06:30;;;;;;;1.17;0.00;;;19.90;59.10;;;;;;5096662;28;20047;-46
2022/11/09 05:08:53;;;;;;;0.35;0.00;;;19.90;59.70;;;;;;5110667;28;20133;-47
2022/11/09 05:11:22;;;;;;;0.38;0.00;;;19.90;59.10;;;;;;5110201;28;20046;-46
2022/11/09 05:13:50;;;;;;;1.13;0.00;;;19.80;59.10;;;;;;5111022;28;20071;-48
2022/11/09 05:16:17;;;;;;;0.57;0.00;;;19.90;59.10;;;;;;5092741;28;20380;-49
2022/11/09 05:18:44;;;;;;;0.20;0.00;;;19.80;59.10;;;;;;5110226;28;20039;-53
2022/11/09 05:21:11;;;;;;;1.55;0.00;;;19.80;59.00;;;;;;5110230;28;20036;-51
2022/11/09 05:26:24;;;;;;;0.20;0.00;;;19.80;59.00;;;;;;5102433;28;20441;-45
2022/11/09 05:28:52;;;;;;;1.55;0.05;;;19.90;59.20;;;;;;5096203;28;20039;-48
2022/11/09 05:31:19;;;;;;;0.10;0.00;;;19.90;59.20;;;;;;5090248;28;20581;-46
2022/11/09 05:33:48;;;;;;;0.00;0.00;;;19.90;59.20;;;;;;5109849;28;20050;-45
2022/11/09 05:36:15;;;;;;;1.65;0.10;;;19.90;59.20;;;;;;5109829;28;20044;-46
2022/11/09 05:38:42;;;;;;;0.30;0.30;;;19.80;59.10;;;;;;5110108;28;20491;-46
2022/11/09 05:41:09;;;;;;;0.20;0.10;;;19.90;59.70;;;;;;5109724;28;20040;-46
2022/11/09 05:43:38;;;;;;;0.30;0.00;;;19.80;59.00;;;;;;5109569;28;20039;-46
2022/11/09 05:46:05;;;;;;;1.80;0.55;;;19.80;59.60;;;;;;5110071;28;20156;-47
2022/11/09 05:48:32;;;;;;;1.27;0.10;;;19.90;59.10;;;;;;5113079;27;20027;-47
2022/11/09 05:51:01;;;;;;;0.00;0.00;;;19.80;59.00;;;;;;5127852;27;20055;-46
2022/11/09 05:53:29;;;;;;;0.22;0.00;;;19.90;59.10;;;;;;5109708;28;20027;-48
2022/11/09 05:55:56;;;;;;;3.53;0.20;;;19.90;59.10;;;;;;5109562;28;20079;-46
2022/11/09 05:58:23;;;;;;;1.35;0.10;;;19.80;59.00;;;;;;5109465;28;20043;-47
2022/11/09 06:00:51;;;;;;;5.68;0.10;;;19.80;59.00;;;;;;5101585;27;20055;-46
2022/11/09 06:03:18;;;;;;;0.30;0.10;;;19.80;58.90;;;;;;5129709;27;20039;-45
2022/11/09 06:05:46;;;;;;;4.05;0.15;;;19.80;58.90;;;;;;5130108;27;20139;-45
2022/11/09 06:08:14;;;;;;;1.23;0.00;;;19.80;58.90;;;;;;5129979;27;20043;-48
2022/11/09 06:10:42;;;;;;;1.83;0.10;;;19.80;58.90;;;;;;5125747;27;20123;-48
2022/11/09 06:13:09;;;;;;;1.65;0.35;;;19.80;58.90;;;;;;5109324;28;20040;-45
2022/11/09 06:15:36;;;;;;;2.63;0.10;;;19.80;58.90;;;;;;5109315;28;20051;-48
2022/11/09 06:18:05;;;;;;;2.25;1.00;;;19.80;58.90;;;;;;5105731;28;20797;-47
2022/11/09 06:20:33;;;;;;;1.65;0.10;;;19.80;58.90;;;;;;5098906;28;20123;-46
2022/11/09 06:23:01;;;;;;;2.28;0.05;;;19.80;58.90;;;;;;5107766;28;20109;-49
2022/11/09 06:25:30;;;;;;;2.03;1.08;;;19.80;58.90;;;;;;5109058;28;20047;-49
2022/11/09 06:27:57;;;;;;;0.80;0.00;;;19.80;58.90;;;;;;5108714;28;20059;-45
2022/11/09 06:30:24;;;;;;;0.30;0.00;;;19.80;58.90;;;;;;5090158;28;20119;-48
2022/11/09 06:32:51;;;;;;;3.03;0.10;;;19.80;58.90;;;;;;5126956;27;20042;-47
2022/11/09 06:35:19;;;;;;;0.88;0.35;;;19.80;58.90;;;;;;5125830;27;20064;-49
2022/11/09 06:37:46;;;;;;;0.10;0.00;;;19.80;58.90;;;;;;5129182;27;20608;-47
2022/11/09 06:40:14;;;;;;;1.80;0.03;;;19.80;58.90;;;;;;5129163;27;20035;-48
2022/11/09 06:42:41;;;;;;;1.30;0.10;;;19.80;58.90;;;;;;5100066;28;20036;-45
2022/11/09 06:45:09;;;;;;;0.70;0.13;;;19.80;58.90;;;;;;5107998;28;20442;-48
2022/11/09 06:47:36;;;;;;;1.17;0.47;;;19.80;59.00;;;;;;5108559;28;20820;-45
2022/11/09 06:50:03;;;;;;;0.95;0.08;;;19.80;59.00;;;;;;5108154;28;20047;-45
2022/11/09 06:52:32;;;;;;;0.43;0.43;;;19.80;59.60;;;;;;5108102;28;20059;-47
2022/11/09 06:54:59;;;;;;;2.42;0.30;;;19.80;59.00;;;;;;5108412;28;20074;-48
2022/11/09 06:57:28;;;;;;;1.85;0.20;;;19.80;59.00;;;;;;5108188;28;20062;-46
2022/11/09 06:59:55;;;;;;;0.32;0.10;;;19.80;59.00;;;;;;5108082;28;20043;-46
2022/11/09 07:02:23;;;;;;;0.35;0.08;;;19.80;59.10;;;;;;5089856;28;20036;-47
2022/11/09 07:04:52;;;;;;;0.73;0.73;;;19.80;59.10;;;;;;5108338;28;20156;-46
2022/11/09 07:07:19;;;;;;;0.90;0.10;;;19.80;59.10;;;;;;5110110;28;20040;-45
2022/11/09 07:09:47;;;;;;;2.20;0.10;;;19.80;59.10;;;;;;5107820;28;20075;-46
2022/11/09 07:12:14;;;;;;;0.95;0.10;;;19.80;59.10;;;;;;5092653;28;20040;-47
2022/11/09 07:14:41;;;;;;;0.20;0.00;;;19.80;59.20;;;;;;5107616;28;20071;-48
2022/11/09 07:17:08;;;;;;;0.50;0.05;;;19.80;59.20;;;;;;5108230;28;20043;-48
2022/11/09 07:19:35;;;;;;;1.27;0.20;;;19.80;59.20;;;;;;5098762;28;20043;-47
2022/11/09 07:22:02;;;;;;;0.98;0.38;;;19.80;59.20;;;;;;5128256;28;20035;-48
2022/11/09 07:24:29;;;;;;;2.30;0.28;;;19.90;59.20;;;;;;5128472;28;20043;-48
2022/11/09 07:26:58;;;;;;;0.20;0.20;;;19.80;59.10;;;;;;5112319;28;20055;-46
2022/11/09 07:29:25;;;;;;;0.85;0.40;;;19.80;59.10;;;;;;5107577;28;20143;-46
2022/11/09 07:31:52;;;;;;;1.95;0.10;;;19.80;59.10;;;;;;5093974;28;20097;-46
2022/11/09 07:34:19;;;;;;;1.02;0.10;;;19.90;59.10;;;;;;5107593;28;20152;-46
2022/11/09 07:36:46;;;;;;;0.55;0.10;;;19.90;59.20;;;;;;5107859;28;20419;-48
2022/11/09 07:39:13;;;;;;;2.38;0.10;;;19.90;59.10;;;;;;5116500;28;20130;-45
2022/11/09 07:41:40;;;;;;;4.60;0.10;;;19.80;59.00;;;;;;5128214;28;20053;-48
2022/11/09 07:44:08;;;;;;;3.03;0.10;;;19.90;59.10;;;;;;5119856;28;20531;-46
2022/11/09 07:46:35;;;;;;;2.28;0.10;;;19.90;59.00;;;;;;5107755;28;20191;-47
2022/11/09 07:49:02;;;;;;;1.92;0.10;;;19.90;59.00;;;;;;5108898;28;20075;-45
2022/11/09 07:51:29;;;;;;;5.47;0.10;;;19.90;59.00;;;;;;5093319;28;20048;-46
2022/11/09 07:53:56;;;;;;;1.08;0.10;;;19.90;59.00;;;;;;5093829;28;20075;-49
2022/11/09 07:56:23;;;;;;;1.95;0.10;;;19.90;58.90;;;;;;5085799;28;20043;-48
2022/11/09 07:58:50;;;;;;;1.45;0.10;;;19.90;58.90;;;;;;5111602;28;20469;-45
2022/11/09 08:01:19;;;;;;;6.45;0.10;;;19.90;58.90;;;;;;5119647;27;20044;-48
2022/11/09 08:03:46;;;;;;;1.45;0.20;;;19.90;58.60;;;;;;5095275;28;20119;-54
2022/11/09 08:06:13;;;;;;;2.05;0.10;;;20.00;58.80;;;;;;5103791;28;20534;-61
2022/11/09 08:08:41;;;;;;;1.52;0.85;;;20.00;58.80;;;;;;5111244;28;20043;-53
2022/11/09 08:11:08;;;;;;;1.25;0.10;;;20.00;58.90;;;;;;5087805;28;20039;-52
2022/11/09 08:13:35;;;;;;;1.38;0.13;;;20.10;59.10;;;;;;5093154;28;20048;-56
2022/11/09 08:16:04;;;;;;;2.15;0.30;;;20.10;59.00;;;;;;5089860;28;20047;-56
2022/11/09 08:18:33;;;;;;;0.90;0.17;;;20.20;59.20;;;;;;5089439;28;20043;-55
2022/11/09 08:21:02;;;;;;;2.42;0.10;;;20.20;59.20;;;;;;5111086;28;20049;-57
2022/11/09 08:23:29;;;;;;;0.65;0.10;;;20.30;59.30;;;;;;5092802;28;20051;-54
2022/11/09 08:25:56;;;;;;;3.53;0.10;;;20.40;59.20;;;;;;5110912;28;20115;-54
2022/11/09 08:28:23;;;;;;;1.73;0.15;;;20.50;59.20;;;;;;5110346;28;20032;-56
2022/11/09 08:30:56;;;;;;;2.70;0.22;;;20.60;58.90;;;;;;5103864;28;20047;-53
2022/11/09 08:33:23;;;;;;;0.73;0.10;;;20.80;58.80;;;;;;5084091;28;20062;-55
2022/11/09 08:35:51;;;;;;;3.35;0.10;;;21.00;58.90;;;;;;5105085;28;20043;-56
2022/11/09 08:38:18;;;;;;;2.80;0.10;;;21.10;58.60;;;;;;5109677;28;20068;-54
2022/11/09 08:40:45;;;;;;;2.75;0.10;;;21.30;58.50;;;;;;5109725;27;20527;-56
2022/11/09 08:43:12;;;;;;;0.68;0.10;;;21.40;58.30;;;;;;5107255;28;20039;-54
2022/11/09 08:45:41;;;;;;;1.63;0.40;;;21.60;58.10;;;;;;5110671;28;20051;-56
2022/11/09 08:48:08;;;;;;;1.65;0.10;;;21.80;57.90;;;;;;5110652;28;20175;-57
2022/11/09 08:50:38;;;;;;;1.45;0.10;;;21.90;57.80;;;;;;5110400;28;20042;-55
2022/11/09 08:53:07;;;;;;;1.85;0.10;;;22.00;57.60;;;;;;5091656;28;20052;-56
2022/11/09 08:55:34;;;;;;;5.35;0.10;;;22.20;57.60;;;;;;5109964;28;20051;-50
2022/11/09 08:58:03;;;;;;;1.63;0.00;;;22.30;57.40;;;;;;5110520;28;20043;-54
2022/11/09 09:00:31;;;;;;;3.88;0.90;;;22.40;57.00;;;;;;5109246;28;20118;-57
2022/11/09 09:02:58;;;;;;;6.15;0.22;;;22.60;56.30;;;;;;5089521;28;20059;-45
2022/11/09 09:05:25;;;;;;;2.85;0.77;;;22.70;55.70;;;;;;5110573;28;20225;-59
2022/11/09 09:07:52;;;;;;;5.40;0.10;;;22.70;55.10;;;;;;5110367;28;20050;-51
2022/11/09 09:10:21;;;;;;;4.55;1.35;;;22.80;54.80;;;;;;5109146;28;20427;-55
2022/11/09 09:12:48;;;;;;;3.38;0.30;;;22.90;54.50;;;;;;5075272;28;20043;-54
2022/11/09 09:15:15;;;;;;;6.93;0.32;;;22.90;54.20;;;;;;5110036;28;20749;-54
2022/11/09 09:17:42;;;;;;;3.30;0.30;;;22.90;53.90;;;;;;5110012;28;20044;-50
2022/11/09 09:20:09;;;;;;;1.17;0.10;;;22.90;53.70;;;;;;5102672;28;20048;-53
2022/11/09 09:22:37;;;;;;;5.65;0.57;;;22.90;53.50;;;;;;5109806;28;20035;-52
2022/11/09 09:25:05;;;;;;;3.40;0.73;;;23.00;53.60;;;;;;5109536;28;20495;-50
2022/11/09 09:27:34;;;;;;;2.67;0.32;;;23.00;53.50;;;;;;5109915;28;20458;-58
2022/11/09 09:30:01;;;;;;;3.63;0.10;;;23.10;53.40;;;;;;5091473;28;20181;-47
2022/11/09 09:32:29;;;;;;;6.35;0.65;;;23.10;53.40;;;;;;5109837;28;20067;-47
2022/11/09 09:34:56;;;;;;;2.20;0.52;;;23.10;53.20;;;;;;5109749;28;20067;-47
2022/11/09 09:37:23;;;;;;;3.15;0.47;;;23.10;53.00;;;;;;5110593;27;20036;-51
2022/11/09 09:39:51;;;;;;;3.15;0.10;;;23.10;52.90;;;;;;5109490;28;20422;-54
2022/11/09 09:42:22;;;;;;;2.75;0.05;;;23.20;52.80;;;;;;5109619;28;20039;-55
2022/11/09 09:44:56;;;;;;;8.70;0.20;;;23.20;52.70;;;;;;5109979;28;20471;-56
2022/11/09 09:47:29;;;;;;;1.33;0.10;;;23.20;52.60;;;;;;5109810;28;20036;-47
2022/11/09 09:50:01;;;;;;;1.20;0.00;;;23.20;52.60;;;;;;5109606;28;20047;-55
2022/11/09 09:52:38;;;;;;;17.70;1.65;;;23.20;52.60;;;;;;5109557;28;20122;-53
2022/11/09 09:55:09;;;;;;;8.18;1.70;;;23.20;52.80;;;;;;5109602;28;20059;-61
2022/11/09 09:57:37;;;;;;;4.57;0.20;;;23.30;53.00;;;;;;5110248;28;20532;-62
2022/11/09 10:00:20;;;;;;;4.03;0.40;;;23.30;52.90;;;;;;5109945;28;20066;-56
2022/11/09 10:02:48;;;;;;;1.38;0.10;;;23.30;52.90;;;;;;5103938;28;20072;-56
2022/11/09 10:05:17;;;;;;;0.52;0.52;;;23.30;52.80;;;;;;5099844;28;20039;-62
2022/11/09 10:07:51;;;;;;;5.03;0.43;;;23.40;52.70;;;;;;5109508;28;20035;-61
2022/11/09 10:10:35;;;;;;;4.55;1.23;;;23.40;52.60;;;;;;5098336;28;20154;-57
2022/11/09 10:13:36;;;;;;;1.98;0.25;;;23.40;52.50;;;;;;5109024;28;20054;-49
2022/11/09 10:16:12;;;;;;;2.08;0.85;;;23.40;52.40;;;;;;5098743;28;20615;-50
2022/11/09 10:18:51;;;;;;;7.55;0.10;;;23.50;52.50;;;;;;5109214;28;20552;-52
2022/11/09 10:21:34;;;;;;;8.40;0.10;;;23.50;52.30;;;;;;5108805;28;20144;-51
2022/11/09 10:24:26;;;;;;;8.70;0.82;;;23.50;52.20;;;;;;5108532;28;20039;-48
2022/11/09 10:26:56;;;;;;;16.35;1.60;;;23.60;52.20;;;;;;5108749;28;20039;-51
2022/11/09 10:29:25;;;;;;;19.73;1.30;;;23.60;52.20;;;;;;5108749;28;20130;-51
2022/11/09 10:31:55;;;;;;;7.95;0.30;;;23.60;52.20;;;;;;5108231;28;20058;-45
2022/11/09 10:34:27;;;;;;;1.70;0.20;;;23.70;52.10;;;;;;5108274;28;20576;-51
2022/11/09 10:37:01;;;;;;;5.43;1.30;;;23.70;52.00;;;;;;5118381;27;20035;-46
2022/11/09 10:39:39;;;;;;;4.18;0.65;;;23.60;51.80;;;;;;5108336;28;20079;-47
2022/11/09 10:42:25;;;;;;;2.53;0.25;;;23.70;51.80;;;;;;5108287;28;20459;-48
2022/11/09 10:45:17;;;;;;;1.30;0.10;;;23.60;51.40;;;;;;5103459;28;20508;-49
2022/11/09 10:48:06;;;;;;;0.85;0.10;;;23.60;51.30;;;;;;5106478;28;20039;-47
2022/11/09 10:50:53;;;;;;;2.22;0.60;;;23.60;51.40;;;;;;5104174;28;20415;-46
2022/11/09 10:53:38;;;;;;;;;;;23.60;51.40;;;;;;5065961;28;20045;-45
2022/11/09 10:56:26;;;;;;;4.00;1.48;;;23.50;51.50;;;;;;5064395;28;20035;-47
2022/11/09 10:59:50;;;;;;;3.78;0.10;;;23.50;51.70;;;;;;5066894;28;20044;-51
2022/11/09 11:02:47;;;;;;;2.45;0.10;;;23.60;51.60;;;;;;5065623;28;20414;-49
2022/11/09 11:05:34;;;;;;;1.42;0.10;;;23.60;52.00;;;;;;5065829;28;20068;-42
2022/11/09 11:08:26;;;;;;;2.50;0.30;;;23.60;52.00;;;;;;5059894;28;20408;-47
2022/11/09 11:11:22;;;;;;;8.50;0.25;;;23.70;52.30;;;;;;5059718;28;20044;-45
2022/11/09 11:14:14;;;;;;;3.03;0.15;;;23.80;52.60;;;;;;5065517;28;20044;-48
2022/11/09 11:17:00;;;;;;;0.73;0.73;;;23.80;52.40;;;;;;5054731;28;20072;-51
2022/11/09 11:19:45;;;;;;;4.13;0.17;;;23.90;52.30;;;;;;5049735;28;20052;-53
2022/11/09 11:22:32;;;;;;;1.30;0.13;;;23.90;52.10;;;;;;5051237;28;20879;-47
2022/11/09 11:25:20;;;;;;;5.63;1.42;;;24.00;52.00;;;;;;5066636;28;20072;-48
2022/11/09 11:28:16;;;;;;;3.58;0.60;;;24.00;53.00;;;;;;5067216;28;20119;-51
2022/11/09 11:31:03;;;;;;;1.27;0.43;;;24.10;53.90;;;;;;5067163;28;20049;-51
2022/11/09 11:33:49;;;;;;;8.65;0.47;;;24.20;51.80;;;;;;5066947;28;20041;-56
2022/11/09 11:36:40;;;;;;;;;;;24.00;49.00;;;;;;5067225;28;20048;-47
2022/11/09 11:39:42;;;;;;;7.25;0.43;;;23.70;49.40;;;;;;5066792;28;19924;-52
2022/11/09 11:43:15;;;;;;;1.52;0.10;;;23.40;48.60;;;;;;5061446;28;20032;-46
2022/11/09 11:46:13;;;;;;;3.58;0.40;;;23.30;48.00;;;;;;4974340;28;20102;-53
2022/11/09 11:49:21;;;;;;;8.82;0.10;;;23.20;48.40;;;;;;4969476;28;20054;-56
2022/11/09 11:52:14;;;;;;;7.38;0.52;;;23.10;47.50;;;;;;4984844;28;20100;-50
2022/11/09 11:55:22;;;;;;;5.10;0.10;;;23.00;47.10;;;;;;4986957;28;20077;-56
2022/11/09 11:58:23;;;;;;;4.18;0.20;;;22.90;46.90;;;;;;4986821;28;20066;-54
2022/11/09 12:01:21;;;;;;;2.55;0.68;;;22.90;46.80;;;;;;4990345;28;20141;-51
2022/11/09 12:04:21;;;;;;;8.38;0.75;;;22.80;46.80;;;;;;5003818;28;20510;-49
2022/11/09 12:07:20;;;;;;;1.92;0.47;;;22.70;46.60;;;;;;5004381;28;20540;-47
2022/11/09 12:10:27;;;;;;;6.10;0.20;;;22.70;46.40;;;;;;4997570;28;20538;-58
2022/11/09 12:13:30;;;;;;;8.68;0.98;;;22.70;46.20;;;;;;4984872;28;20076;-51
2022/11/09 12:16:23;;;;;;;8.85;0.40;;;22.70;46.30;;;;;;4983639;28;20154;-47
2022/11/09 12:19:30;;;;;;;5.05;0.10;;;22.70;46.20;;;;;;4990456;28;20082;-47
2022/11/09 12:22:22;;;;;;;7.60;0.73;;;22.70;46.30;;;;;;5021821;28;20045;-48
2022/11/09 12:25:16;;;;;;;5.90;0.30;;;22.60;46.90;;;;;;5057926;28;20038;-52
2022/11/09 12:28:27;;;;;;;1.88;0.80;;;22.60;46.40;;;;;;5062481;28;20042;-50
2022/11/09 12:31:24;;;;;;;6.07;0.20;;;22.60;46.00;;;;;;5064273;28;20476;-50
2022/11/09 12:34:21;;;;;;;7.03;0.77;;;22.50;45.80;;;;;;5065013;28;20045;-49
2022/11/09 12:37:12;;;;;;;4.10;0.25;;;22.40;45.80;;;;;;5069847;28;20374;-50
2022/11/09 12:40:05;;;;;;;4.38;1.10;;;22.30;46.00;;;;;;5072371;28;20037;-48
2022/11/09 12:42:58;;;;;;;3.75;1.05;;;22.10;46.10;;;;;;5066245;28;20489;-49
2022/11/09 12:45:45;;;;;;;6.65;0.30;;;22.00;46.50;;;;;;5056743;28;20044;-50
2022/11/09 12:48:33;;;;;;;1.08;0.10;;;21.80;46.70;;;;;;5069145;28;20036;-52
2022/11/09 12:51:20;;;;;;;5.43;0.17;;;21.70;46.80;;;;;;5085930;28;20132;-51
2022/11/09 12:54:10;;;;;;;5.03;1.10;;;21.50;46.70;;;;;;5092278;28;20046;-53
2022/11/09 12:56:59;;;;;;;2.83;0.40;;;21.50;47.50;;;;;;5110687;28;20495;-48
2022/11/09 12:59:48;;;;;;;4.88;0.50;;;21.40;46.90;;;;;;5110779;28;20043;-49
2022/11/09 13:02:52;;;;;;;3.13;0.10;;;21.30;47.00;;;;;;5106304;28;20501;-47
2022/11/09 13:05:39;;;;;;;2.38;0.13;;;21.20;47.00;;;;;;5103731;28;20066;-48
2022/11/09 13:08:28;;;;;;;;;;;21.20;47.20;;;;;;5110780;28;20035;-48
2022/11/09 13:11:22;;;;;;;2.60;0.35;;;21.10;47.30;;;;;;5109949;28;19923;-47
2022/11/09 13:14:29;;;;;;;3.25;0.20;;;21.00;47.60;;;;;;5110474;28;20044;-49
2022/11/09 13:18:00;;;;;;;6.50;0.80;;;21.00;47.70;;;;;;5109993;28;20042;-49
2022/11/09 13:20:48;;;;;;;0.93;0.20;;;20.90;47.80;;;;;;5110074;28;20048;-49
2022/11/09 13:23:37;;;;;;;4.20;0.25;;;20.70;47.80;;;;;;5100202;28;20047;-52